createdAt,value
2023-05-20T00:03:37.297Z,101097.78
2023-05-20T00:08:41.069Z,101094.59
2023-05-20T00:13:44.437Z,101086.56
2023-05-20T00:18:49.258Z,101080.59
2023-05-20T00:23:52.868Z,101083.13
2023-05-20T00:28:56.114Z,101081.84
2023-05-20T00:34:01.592Z,101074.63
2023-05-20T00:39:05.028Z,101078.25
2023-05-20T00:44:08.271Z,101069.50
2023-05-20T00:49:14.226Z,101077.38
2023-05-20T00:54:17.946Z,101072.28
2023-05-20T00:59:22.836Z,101077.00
2023-05-20T01:04:28.438Z,101081.56
2023-05-20T01:09:32.576Z,101069.25
2023-05-20T01:14:41.589Z,101079.63
2023-05-20T01:19:48.072Z,101069.97
2023-05-20T01:24:53.769Z,101074.38
2023-05-20T01:29:57.591Z,101069.97
2023-05-20T01:35:02.071Z,101066.63
2023-05-20T01:40:09.340Z,101066.22
2023-05-20T01:45:12.844Z,101060.41
2023-05-20T01:50:16.196Z,101064.13
2023-05-20T01:55:20.992Z,101070.09
2023-05-20T02:00:28.996Z,101064.56
2023-05-20T02:05:33.523Z,101060.84
2023-05-20T02:10:39.172Z,101065.97
2023-05-20T02:15:43.190Z,101068.84
2023-05-20T02:20:46.711Z,101060.13
2023-05-20T02:25:51.957Z,101053.06
2023-05-20T02:30:55.449Z,101060.25
2023-05-20T02:35:59.004Z,101055.97
2023-05-20T02:41:04.699Z,101058.59
2023-05-20T02:46:08.065Z,101063.75
2023-05-20T02:51:11.659Z,101070.78
2023-05-20T02:56:16.421Z,101059.44
2023-05-20T03:01:19.867Z,101060.78
2023-05-20T03:06:23.184Z,101065.09
2023-05-20T03:11:27.675Z,101055.66
2023-05-20T03:16:31.049Z,101057.31
2023-05-20T03:21:34.451Z,101054.22
2023-05-20T03:26:43.543Z,101055.72
2023-05-20T03:31:47.621Z,101059.16
2023-05-20T03:36:52.747Z,101062.66
2023-05-20T03:41:57.212Z,101050.66
2023-05-20T03:47:00.461Z,101054.84
2023-05-20T03:52:04.096Z,101047.75
2023-05-20T03:57:10.650Z,101053.28
2023-05-20T04:02:13.927Z,101050.06
2023-05-20T04:07:17.144Z,101055.66
2023-05-20T04:12:21.665Z,101062.25
2023-05-20T04:17:24.977Z,101055.31
2023-05-20T04:22:28.716Z,101068.22
2023-05-20T04:27:34.870Z,101065.28
2023-05-20T04:32:38.876Z,101058.22
2023-05-20T04:37:44.681Z,101055.91
2023-05-20T04:42:49.265Z,101063.44
2023-05-20T04:47:53.521Z,101053.22
2023-05-20T04:52:56.853Z,101080.91
2023-05-20T04:58:01.545Z,101083.97
2023-05-20T05:03:04.984Z,101097.16
2023-05-20T05:08:08.412Z,101081.81
2023-05-20T05:13:13.022Z,101074.44
2023-05-20T05:18:19.235Z,101076.69
2023-05-20T05:23:22.589Z,101074.50
2023-05-20T05:28:27.530Z,101077.69
2023-05-20T05:33:37.959Z,101063.56
2023-05-20T05:38:41.423Z,101051.31
2023-05-20T05:43:45.910Z,101044.41
2023-05-20T05:48:52.178Z,101041.69
2023-05-20T05:53:55.953Z,101039.06
2023-05-20T05:59:00.895Z,101034.47
2023-05-20T06:04:04.466Z,101050.38
2023-05-20T06:09:10.809Z,101045.97
2023-05-20T06:14:18.187Z,101040.72
2023-05-20T06:19:25.572Z,101042.78
2023-05-20T06:24:31.249Z,101033.91
2023-05-20T06:29:35.923Z,101036.38
2023-05-20T06:34:39.130Z,101048.88
2023-05-20T06:39:42.984Z,101047.91
2023-05-20T06:44:47.760Z,101059.56
2023-05-20T06:49:50.999Z,101045.03
2023-05-20T06:54:54.724Z,101039.59
2023-05-20T06:59:59.381Z,101036.84
2023-05-20T07:05:02.991Z,101034.19
2023-05-20T07:10:07.960Z,101032.25
2023-05-20T07:15:13.130Z,101033.22
2023-05-20T07:20:16.580Z,101029.91
2023-05-20T07:25:19.856Z,101022.53
2023-05-20T07:30:24.987Z,101009.66
2023-05-20T07:35:28.300Z,100993.97
2023-05-20T07:40:31.552Z,101003.81
2023-05-20T07:45:36.702Z,101004.63
2023-05-20T07:50:40.444Z,100993.38
2023-05-20T07:55:43.594Z,100999.03
2023-05-20T08:00:48.237Z,100996.78
2023-05-20T08:05:51.454Z,101005.88
2023-05-20T08:10:54.772Z,100998.06
2023-05-20T08:15:59.494Z,100987.72
2023-05-20T08:21:02.732Z,100990.28
2023-05-20T08:26:05.999Z,100983.75
2023-05-20T08:31:10.884Z,100987.47
2023-05-20T08:36:14.117Z,100996.53
2023-05-20T08:41:17.332Z,100978.41
2023-05-20T08:46:24.358Z,100980.50
2023-05-20T08:51:32.366Z,100964.38
2023-05-20T08:56:35.710Z,100964.38
2023-05-20T09:01:44.318Z,100959.25
2023-05-20T09:06:48.531Z,100971.78
2023-05-20T09:11:51.647Z,100956.13
2023-05-20T09:16:57.124Z,100956.44
2023-05-20T09:22:00.463Z,100952.16
2023-05-20T09:27:03.664Z,100950.06
2023-05-20T09:32:09.187Z,100949.00
2023-05-20T09:37:13.325Z,100959.47
2023-05-20T09:42:22.292Z,100937.75
2023-05-20T09:47:28.209Z,100936.91
2023-05-20T09:52:32.374Z,100949.78
2023-05-20T09:57:36.490Z,100920.03
2023-05-20T10:02:44.231Z,100909.78
2023-05-20T10:08:19.405Z,100911.28
2023-05-20T10:13:45.125Z,100897.53
2023-05-20T10:18:58.100Z,100893.78
2023-05-20T10:24:08.329Z,100884.91
2023-05-20T10:29:22.928Z,100879.00
2023-05-20T10:34:27.988Z,100877.22
2023-05-20T10:39:34.214Z,100871.69
2023-05-20T10:44:44.695Z,100878.41
2023-05-20T10:49:49.539Z,100876.66
2023-05-20T10:54:57.778Z,100864.44
2023-05-20T11:00:02.132Z,100858.91
2023-05-20T11:05:15.455Z,100874.31
2023-05-20T11:10:18.754Z,100837.66
2023-05-20T11:15:26.636Z,100831.88
2023-05-20T11:20:35.482Z,100828.25
2023-05-20T11:25:45.695Z,100837.78
2023-05-20T11:30:49.574Z,100842.09
2023-05-20T11:35:58.266Z,100853.69
2023-05-20T11:41:01.502Z,100832.34
2023-05-20T11:46:06.554Z,100807.03
2023-05-20T11:51:11.931Z,100832.47
2023-05-20T11:56:16.040Z,100807.56
2023-05-20T12:01:23.068Z,100782.72
2023-05-20T12:06:28.180Z,100784.56
2023-05-20T12:11:32.930Z,100768.34
2023-05-20T12:16:37.489Z,100773.81
2023-05-20T12:21:42.247Z,100758.97
2023-05-20T12:26:47.205Z,100766.47
2023-05-20T12:31:50.724Z,100743.25
2023-05-20T12:36:58.450Z,100753.75
2023-05-20T12:42:01.792Z,100741.06
2023-05-20T12:47:09.988Z,100751.28
2023-05-20T12:52:22.286Z,100746.78
2023-05-20T12:57:26.725Z,100745.66
2023-05-20T13:02:30.629Z,100725.13
2023-05-20T13:07:35.508Z,100727.75
2023-05-20T13:12:39.015Z,100715.47
2023-05-20T13:17:42.777Z,100705.28
2023-05-20T13:22:48.150Z,100697.25
2023-05-20T13:27:51.790Z,100697.97
2023-05-20T13:32:55.634Z,100692.28
2023-05-20T13:38:02.573Z,100691.06
2023-05-20T13:43:06.342Z,100680.38
2023-05-20T13:48:09.688Z,100682.34
2023-05-20T13:53:14.559Z,100669.44
2023-05-20T13:58:17.760Z,100660.19
2023-05-20T14:03:23.906Z,100645.22
2023-05-20T14:08:28.726Z,100652.19
2023-05-20T14:13:35.560Z,100663.13
2023-05-20T14:18:38.769Z,100656.56
2023-05-20T14:23:47.761Z,100636.50
2023-05-20T14:28:52.289Z,100622.56
2023-05-20T14:33:55.550Z,100630.63
2023-05-20T14:39:00.783Z,100605.81
2023-05-20T14:44:04.148Z,100602.75
2023-05-20T14:49:07.300Z,100597.19
2023-05-20T14:54:16.204Z,100592.25
2023-05-20T14:59:19.474Z,100585.09
2023-05-20T15:04:27.109Z,100584.25
2023-05-20T15:09:32.213Z,100583.47
2023-05-20T15:14:38.883Z,100584.09
2023-05-20T15:19:42.464Z,100571.22
2023-05-20T15:24:49.809Z,100572.66
2023-05-20T15:29:52.973Z,100590.34
2023-05-20T15:34:56.478Z,100568.44
2023-05-20T15:40:01.500Z,100562.50
2023-05-20T15:45:04.749Z,100563.31
2023-05-20T15:50:12.162Z,100559.84
2023-05-20T15:55:23.281Z,100561.06
2023-05-20T16:00:27.440Z,100570.50
2023-05-20T16:05:30.966Z,100558.38
2023-05-20T16:10:38.300Z,100558.38
2023-05-20T16:15:44.097Z,100556.56
2023-05-20T16:20:47.417Z,100547.09
2023-05-20T16:25:52.262Z,100553.50
2023-05-20T16:30:55.732Z,100542.03
2023-05-20T16:35:59.030Z,100531.34
2023-05-20T16:41:08.110Z,100526.84
2023-05-20T16:46:12.838Z,100533.00
2023-05-20T16:51:19.671Z,100528.66
2023-05-20T16:56:24.616Z,100522.47
2023-05-20T17:01:30.975Z,100522.00
2023-05-20T17:06:34.605Z,100522.84
2023-05-20T17:11:39.209Z,100526.13
2023-05-20T17:16:43.091Z,100528.56
2023-05-20T17:21:47.004Z,100523.59
2023-05-20T17:26:56.365Z,100526.41
2023-05-20T17:31:59.742Z,100520.78
2023-05-20T17:37:06.343Z,100529.94
2023-05-20T17:42:13.658Z,100538.31
2023-05-20T17:47:17.107Z,100533.56
2023-05-20T17:52:24.842Z,100538.06
2023-05-20T17:57:29.359Z,100552.78
2023-05-20T18:02:35.077Z,100554.19
2023-05-20T18:07:38.891Z,100553.13
2023-05-20T18:12:45.515Z,100562.94
2023-05-20T18:17:52.011Z,100563.50
2023-05-20T18:23:01.477Z,100574.69
2023-05-20T18:28:06.509Z,100582.56
2023-05-20T18:33:12.491Z,100578.47
2023-05-20T18:38:16.689Z,100576.69
2023-05-20T18:43:27.470Z,100587.19
2023-05-20T18:48:30.976Z,100569.47
2023-05-20T18:53:40.809Z,100574.63
2023-05-20T18:58:47.989Z,100584.66
2023-05-20T19:03:52.741Z,100584.97
2023-05-20T19:08:56.869Z,100584.06
2023-05-20T19:14:02.054Z,100607.25
2023-05-20T19:19:05.224Z,100600.09
2023-05-20T19:24:19.648Z,100613.81
2023-05-20T19:29:25.075Z,100620.41
2023-05-20T19:34:29.831Z,100614.53
2023-05-20T19:39:35.090Z,100623.41
2023-05-20T19:44:40.770Z,100624.44
2023-05-20T19:49:52.666Z,100638.78
2023-05-20T19:54:56.988Z,100623.28
2023-05-20T20:00:03.770Z,100620.69
2023-05-20T20:05:09.091Z,100616.28
2023-05-20T20:10:14.822Z,100628.75
2023-05-20T20:15:20.569Z,100623.84
2023-05-20T20:20:24.905Z,100620.78
2023-05-20T20:25:28.317Z,100605.09
2023-05-20T20:30:33.086Z,100603.94
2023-05-20T20:35:37.044Z,100591.53
2023-05-20T20:40:42.766Z,100592.56
2023-05-20T20:45:47.761Z,100594.94
2023-05-20T20:50:51.410Z,100593.31
2023-05-20T20:55:57.055Z,100576.00
2023-05-20T21:01:03.446Z,100587.44
2023-05-20T21:06:07.364Z,100587.94
2023-05-20T21:11:10.636Z,100589.63
2023-05-20T21:16:15.392Z,100574.41
2023-05-20T21:21:21.587Z,100578.75
2023-05-20T21:26:25.568Z,100578.25
2023-05-20T21:31:30.271Z,100579.44
2023-05-20T21:36:33.669Z,100573.63
2023-05-20T21:41:36.857Z,100571.66
2023-05-20T21:46:42.443Z,100579.59
2023-05-20T21:51:45.774Z,100577.31
2023-05-20T21:56:48.959Z,100571.53
2023-05-20T22:01:53.638Z,100572.03
2023-05-20T22:06:57.356Z,100568.06
2023-05-20T22:12:01.332Z,100577.69
2023-05-20T22:17:06.196Z,100571.22
2023-05-20T22:22:09.511Z,100567.94
2023-05-20T22:27:12.826Z,100561.28
2023-05-20T22:32:17.658Z,100550.06
2023-05-20T22:37:21.191Z,100552.38
2023-05-20T22:42:24.585Z,100560.66
2023-05-20T22:47:29.198Z,100544.13
2023-05-20T22:52:32.718Z,100536.03
2023-05-20T22:57:37.008Z,100540.66
2023-05-20T23:02:42.320Z,100531.88
2023-05-20T23:07:46.171Z,100530.06
2023-05-20T23:12:49.253Z,100530.41
2023-05-20T23:17:53.766Z,100527.91
2023-05-20T23:22:57.075Z,100518.47
2023-05-20T23:28:00.232Z,100520.94
2023-05-20T23:33:05.309Z,100523.41
2023-05-20T23:38:08.832Z,100532.81
2023-05-20T23:43:12.047Z,100529.34
2023-05-20T23:48:18.006Z,100532.13
2023-05-20T23:53:21.500Z,100526.34
2023-05-20T23:58:24.782Z,100525.50
